SARP/PSS METAR and TAF weather

Enter ICAO airport designator
Station Type Date Time Source
SARP METAR 2024/03/13 16:00 UTC NOAA

SARP 131600Z 34006KT CAVOK 35/22 Q1012


Station Type Date Time Source
SARP Decoded METAR 2024/03/13 16:00 UTC NOAA

Posadas Aero., Argentina (SARP) 27-22S 055-58W 133M
Mar 13, 2024 - 12:00 PM EDT / 2024.03.13 1600 UTC
Wind: from the NNW (340 degrees) at 7 MPH (6 KT):0
Visibility: greater than 7 mile(s):0
Temperature: 95 F (35 C)
Heat index: 102.6 F (39.2 C):1
Dew Point: 71 F (22 C)
Relative Humidity: 46%
Pressure (altimeter): 29.88 in. Hg (1012 hPa)
ob: SARP 131600Z 34006KT CAVOK 35/22 Q1012
cycle: 16

Station Type Date Time Source
SARP TAF 2024/05/28 18:45 UTC NOAA